sensor_id;sensor_type;location;lat;lon;timestamp;temperature;humidity
7958;DHT22;4024;52.172;5.378;2024-01-25T00:01:19;10.60;99.90
7958;DHT22;4024;52.172;5.378;2024-01-25T00:03:45;10.60;99.90
7958;DHT22;4024;52.172;5.378;2024-01-25T00:06:10;10.50;99.90
7958;DHT22;4024;52.172;5.378;2024-01-25T00:08:36;10.60;99.90
7958;DHT22;4024;52.172;5.378;2024-01-25T00:11:02;10.50;99.90
7958;DHT22;4024;52.172;5.378;2024-01-25T00:13:28;10.40;99.90
7958;DHT22;4024;52.172;5.378;2024-01-25T00:15:54;10.60;99.90
7958;DHT22;4024;52.172;5.378;2024-01-25T00:18:20;10.40;99.90
7958;DHT22;4024;52.172;5.378;2024-01-25T00:20:46;10.40;99.90
7958;DHT22;4024;52.172;5.378;2024-01-25T00:23:11;10.30;99.90
7958;DHT22;4024;52.172;5.378;2024-01-25T00:25:37;10.30;99.90
7958;DHT22;4024;52.172;5.378;2024-01-25T00:28:03;10.30;99.90
7958;DHT22;4024;52.172;5.378;2024-01-25T00:30:29;10.30;99.90
7958;DHT22;4024;52.172;5.378;2024-01-25T00:32:56;10.20;99.90
7958;DHT22;4024;52.172;5.378;2024-01-25T00:35:22;10.20;99.90
7958;DHT22;4024;52.172;5.378;2024-01-25T00:37:49;10.20;99.90
7958;DHT22;4024;52.172;5.378;2024-01-25T00:40:15;10.20;99.90
7958;DHT22;4024;52.172;5.378;2024-01-25T00:42:43;10.10;99.90
7958;DHT22;4024;52.172;5.378;2024-01-25T00:45:09;10.10;99.90
7958;DHT22;4024;52.172;5.378;2024-01-25T00:47:35;10.10;99.90
7958;DHT22;4024;52.172;5.378;2024-01-25T00:50:01;10.00;99.90
7958;DHT22;4024;52.172;5.378;2024-01-25T00:52:27;10.00;99.90
7958;DHT22;4024;52.172;5.378;2024-01-25T00:54:53;10.00;99.90
7958;DHT22;4024;52.172;5.378;2024-01-25T00:57:19;10.00;99.90
7958;DHT22;4024;52.172;5.378;2024-01-25T00:59:45;10.00;99.90
7958;DHT22;4024;52.172;5.378;2024-01-25T01:02:12;10.00;99.90
7958;DHT22;4024;52.172;5.378;2024-01-25T01:04:39;9.90;99.90
7958;DHT22;4024;52.172;5.378;2024-01-25T01:07:05;9.90;99.90
7958;DHT22;4024;52.172;5.378;2024-01-25T01:09:31;9.90;99.90
7958;DHT22;4024;52.172;5.378;2024-01-25T01:11:56;9.80;99.90
7958;DHT22;4024;52.172;5.378;2024-01-25T01:14:22;9.80;99.90
7958;DHT22;4024;52.172;5.378;2024-01-25T01:16:47;9.80;99.90
7958;DHT22;4024;52.172;5.378;2024-01-25T01:19:13;9.80;99.90
7958;DHT22;4024;52.172;5.378;2024-01-25T01:21:39;9.70;99.90
7958;DHT22;4024;52.172;5.378;2024-01-25T01:24:11;9.70;99.90
7958;DHT22;4024;52.172;5.378;2024-01-25T01:26:37;9.70;99.90
7958;DHT22;4024;52.172;5.378;2024-01-25T01:29:03;9.70;99.90
7958;DHT22;4024;52.172;5.378;2024-01-25T01:31:29;9.70;99.90
7958;DHT22;4024;52.172;5.378;2024-01-25T01:33:55;9.60;99.90
7958;DHT22;4024;52.172;5.378;2024-01-25T01:36:20;9.60;99.90
7958;DHT22;4024;52.172;5.378;2024-01-25T01:38:47;9.60;99.90
7958;DHT22;4024;52.172;5.378;2024-01-25T01:41:13;9.60;99.90
7958;DHT22;4024;52.172;5.378;2024-01-25T01:43:39;9.50;99.90
7958;DHT22;4024;52.172;5.378;2024-01-25T01:46:30;9.50;99.90
7958;DHT22;4024;52.172;5.378;2024-01-25T01:48:57;9.50;99.90
7958;DHT22;4024;52.172;5.378;2024-01-25T01:51:23;9.50;99.90
7958;DHT22;4024;52.172;5.378;2024-01-25T01:53:49;9.40;99.90
7958;DHT22;4024;52.172;5.378;2024-01-25T01:56:15;9.40;99.90
7958;DHT22;4024;52.172;5.378;2024-01-25T01:58:41;9.40;99.90
7958;DHT22;4024;52.172;5.378;2024-01-25T02:01:07;9.40;99.90
7958;DHT22;4024;52.172;5.378;2024-01-25T02:03:33;9.40;99.90
7958;DHT22;4024;52.172;5.378;2024-01-25T02:06:00;9.30;99.90
7958;DHT22;4024;52.172;5.378;2024-01-25T02:08:29;9.30;99.90
7958;DHT22;4024;52.172;5.378;2024-01-25T02:10:54;9.30;99.90
7958;DHT22;4024;52.172;5.378;2024-01-25T02:13:21;9.30;99.90
7958;DHT22;4024;52.172;5.378;2024-01-25T02:15:47;9.20;99.90
7958;DHT22;4024;52.172;5.378;2024-01-25T02:18:12;9.20;99.90
7958;DHT22;4024;52.172;5.378;2024-01-25T02:20:38;9.20;99.90
7958;DHT22;4024;52.172;5.378;2024-01-25T02:23:05;9.20;99.90
7958;DHT22;4024;52.172;5.378;2024-01-25T02:25:31;9.10;99.90
7958;DHT22;4024;52.172;5.378;2024-01-25T02:27:56;9.10;99.90
7958;DHT22;4024;52.172;5.378;2024-01-25T02:30:22;9.00;99.90
7958;DHT22;4024;52.172;5.378;2024-01-25T02:32:47;9.00;99.90
7958;DHT22;4024;52.172;5.378;2024-01-25T02:35:13;9.00;99.90
7958;DHT22;4024;52.172;5.378;2024-01-25T02:37:38;9.00;99.90
7958;DHT22;4024;52.172;5.378;2024-01-25T02:40:04;9.00;99.90
7958;DHT22;4024;52.172;5.378;2024-01-25T02:42:30;8.90;99.90
7958;DHT22;4024;52.172;5.378;2024-01-25T02:44:56;8.90;99.90
7958;DHT22;4024;52.172;5.378;2024-01-25T02:47:21;8.90;99.90
7958;DHT22;4024;52.172;5.378;2024-01-25T02:49:47;8.80;99.90
7958;DHT22;4024;52.172;5.378;2024-01-25T02:52:12;8.80;99.90
7958;DHT22;4024;52.172;5.378;2024-01-25T02:54:38;8.80;99.90
7958;DHT22;4024;52.172;5.378;2024-01-25T02:57:04;8.80;99.90
7958;DHT22;4024;52.172;5.378;2024-01-25T02:59:30;8.70;99.90
7958;DHT22;4024;52.172;5.378;2024-01-25T03:01:55;8.70;99.90
7958;DHT22;4024;52.172;5.378;2024-01-25T03:04:21;8.70;99.90
7958;DHT22;4024;52.172;5.378;2024-01-25T03:06:46;8.70;99.90
7958;DHT22;4024;52.172;5.378;2024-01-25T03:09:12;8.60;99.90
7958;DHT22;4024;52.172;5.378;2024-01-25T03:11:38;8.60;99.90
7958;DHT22;4024;52.172;5.378;2024-01-25T03:14:04;8.60;99.90
7958;DHT22;4024;52.172;5.378;2024-01-25T03:16:29;8.60;99.90
7958;DHT22;4024;52.172;5.378;2024-01-25T03:18:55;8.60;99.90
7958;DHT22;4024;52.172;5.378;2024-01-25T03:21:20;8.60;99.90
7958;DHT22;4024;52.172;5.378;2024-01-25T03:23:46;8.50;99.90
7958;DHT22;4024;52.172;5.378;2024-01-25T03:26:11;8.50;99.90
7958;DHT22;4024;52.172;5.378;2024-01-25T03:28:37;8.50;99.90
7958;DHT22;4024;52.172;5.378;2024-01-25T03:31:04;8.50;99.90
7958;DHT22;4024;52.172;5.378;2024-01-25T03:33:30;8.40;99.90
7958;DHT22;4024;52.172;5.378;2024-01-25T03:36:01;8.40;99.90
7958;DHT22;4024;52.172;5.378;2024-01-25T03:38:27;8.40;99.90
7958;DHT22;4024;52.172;5.378;2024-01-25T03:40:53;8.30;99.90
7958;DHT22;4024;52.172;5.378;2024-01-25T03:43:19;8.30;99.90
7958;DHT22;4024;52.172;5.378;2024-01-25T03:45:45;8.30;99.90
7958;DHT22;4024;52.172;5.378;2024-01-25T03:48:10;8.30;99.90
7958;DHT22;4024;52.172;5.378;2024-01-25T03:50:36;8.30;99.90
7958;DHT22;4024;52.172;5.378;2024-01-25T03:53:01;8.30;99.90
7958;DHT22;4024;52.172;5.378;2024-01-25T03:55:27;8.20;99.90
7958;DHT22;4024;52.172;5.378;2024-01-25T03:57:52;8.20;99.90
7958;DHT22;4024;52.172;5.378;2024-01-25T04:00:18;8.20;99.90
7958;DHT22;4024;52.172;5.378;2024-01-25T04:02:44;8.20;99.90
7958;DHT22;4024;52.172;5.378;2024-01-25T04:05:09;8.20;99.90
7958;DHT22;4024;52.172;5.378;2024-01-25T04:07:35;8.10;99.90
7958;DHT22;4024;52.172;5.378;2024-01-25T04:10:01;8.10;99.90
7958;DHT22;4024;52.172;5.378;2024-01-25T04:12:27;8.10;99.90
7958;DHT22;4024;52.172;5.378;2024-01-25T04:14:53;8.10;99.90
7958;DHT22;4024;52.172;5.378;2024-01-25T04:17:18;8.00;99.90
7958;DHT22;4024;52.172;5.378;2024-01-25T04:19:44;8.00;99.90
7958;DHT22;4024;52.172;5.378;2024-01-25T04:22:10;8.00;99.90
7958;DHT22;4024;52.172;5.378;2024-01-25T04:24:35;8.00;99.90
7958;DHT22;4024;52.172;5.378;2024-01-25T04:27:01;8.00;99.90
7958;DHT22;4024;52.172;5.378;2024-01-25T04:29:26;7.90;99.90
7958;DHT22;4024;52.172;5.378;2024-01-25T04:31:52;7.90;99.90
7958;DHT22;4024;52.172;5.378;2024-01-25T04:34:18;7.90;99.90
7958;DHT22;4024;52.172;5.378;2024-01-25T04:36:44;7.90;99.90
7958;DHT22;4024;52.172;5.378;2024-01-25T04:39:09;8.00;99.90
7958;DHT22;4024;52.172;5.378;2024-01-25T04:41:36;7.90;99.90
7958;DHT22;4024;52.172;5.378;2024-01-25T04:44:02;7.90;99.90
7958;DHT22;4024;52.172;5.378;2024-01-25T04:46:27;7.80;99.90
7958;DHT22;4024;52.172;5.378;2024-01-25T04:48:53;7.80;99.90
7958;DHT22;4024;52.172;5.378;2024-01-25T04:51:19;7.80;99.90
7958;DHT22;4024;52.172;5.378;2024-01-25T04:53:48;7.80;99.90
7958;DHT22;4024;52.172;5.378;2024-01-25T04:56:13;7.80;99.90
7958;DHT22;4024;52.172;5.378;2024-01-25T04:58:39;7.80;99.90
7958;DHT22;4024;52.172;5.378;2024-01-25T05:01:04;7.80;99.90
7958;DHT22;4024;52.172;5.378;2024-01-25T05:03:32;7.70;99.90
7958;DHT22;4024;52.172;5.378;2024-01-25T05:05:58;7.70;99.90
7958;DHT22;4024;52.172;5.378;2024-01-25T05:08:24;7.70;99.90
7958;DHT22;4024;52.172;5.378;2024-01-25T05:10:49;7.70;99.90
7958;DHT22;4024;52.172;5.378;2024-01-25T05:13:15;7.70;99.90
7958;DHT22;4024;52.172;5.378;2024-01-25T05:15:41;7.60;99.90
7958;DHT22;4024;52.172;5.378;2024-01-25T05:18:06;7.70;99.90
7958;DHT22;4024;52.172;5.378;2024-01-25T05:20:32;7.60;99.90
7958;DHT22;4024;52.172;5.378;2024-01-25T05:23:00;7.60;99.90
7958;DHT22;4024;52.172;5.378;2024-01-25T05:25:25;7.60;99.90
7958;DHT22;4024;52.172;5.378;2024-01-25T05:27:55;7.60;99.90
7958;DHT22;4024;52.172;5.378;2024-01-25T05:30:22;7.60;99.90
7958;DHT22;4024;52.172;5.378;2024-01-25T05:32:47;7.60;99.90
7958;DHT22;4024;52.172;5.378;2024-01-25T05:35:15;7.60;99.90
7958;DHT22;4024;52.172;5.378;2024-01-25T05:37:40;7.60;99.90
7958;DHT22;4024;52.172;5.378;2024-01-25T05:40:06;7.60;99.90
7958;DHT22;4024;52.172;5.378;2024-01-25T05:42:32;7.60;99.90
7958;DHT22;4024;52.172;5.378;2024-01-25T05:44:58;7.60;99.90
7958;DHT22;4024;52.172;5.378;2024-01-25T05:47:24;7.50;99.90
7958;DHT22;4024;52.172;5.378;2024-01-25T05:49:49;7.50;99.90
7958;DHT22;4024;52.172;5.378;2024-01-25T05:52:15;7.50;99.90
7958;DHT22;4024;52.172;5.378;2024-01-25T05:54:41;7.50;99.90
7958;DHT22;4024;52.172;5.378;2024-01-25T05:57:06;7.50;99.90
7958;DHT22;4024;52.172;5.378;2024-01-25T05:59:32;7.40;99.90
7958;DHT22;4024;52.172;5.378;2024-01-25T06:01:58;7.40;99.90
7958;DHT22;4024;52.172;5.378;2024-01-25T06:04:23;7.40;99.90
7958;DHT22;4024;52.172;5.378;2024-01-25T06:06:49;7.40;99.90
7958;DHT22;4024;52.172;5.378;2024-01-25T06:09:14;7.40;99.90
7958;DHT22;4024;52.172;5.378;2024-01-25T06:11:42;7.30;99.90
7958;DHT22;4024;52.172;5.378;2024-01-25T06:14:09;7.40;99.90
7958;DHT22;4024;52.172;5.378;2024-01-25T06:16:34;7.40;99.90
7958;DHT22;4024;52.172;5.378;2024-01-25T06:19:00;7.40;99.90
7958;DHT22;4024;52.172;5.378;2024-01-25T06:21:26;7.40;99.90
7958;DHT22;4024;52.172;5.378;2024-01-25T06:23:52;7.40;99.90
7958;DHT22;4024;52.172;5.378;2024-01-25T06:26:18;7.30;99.90
7958;DHT22;4024;52.172;5.378;2024-01-25T06:28:43;7.30;99.90
7958;DHT22;4024;52.172;5.378;2024-01-25T06:31:09;7.30;99.90
7958;DHT22;4024;52.172;5.378;2024-01-25T06:33:35;7.30;99.90
7958;DHT22;4024;52.172;5.378;2024-01-25T06:36:00;7.30;99.90
7958;DHT22;4024;52.172;5.378;2024-01-25T06:38:26;7.30;99.90
7958;DHT22;4024;52.172;5.378;2024-01-25T06:40:51;7.30;99.90
7958;DHT22;4024;52.172;5.378;2024-01-25T06:43:17;7.30;99.90
7958;DHT22;4024;52.172;5.378;2024-01-25T06:45:43;7.30;99.90
7958;DHT22;4024;52.172;5.378;2024-01-25T06:48:08;7.30;99.90
7958;DHT22;4024;52.172;5.378;2024-01-25T06:50:34;7.30;99.90
7958;DHT22;4024;52.172;5.378;2024-01-25T06:53:00;7.30;99.90
7958;DHT22;4024;52.172;5.378;2024-01-25T06:55:26;7.30;99.90
7958;DHT22;4024;52.172;5.378;2024-01-25T06:57:52;7.30;99.90
7958;DHT22;4024;52.172;5.378;2024-01-25T07:00:18;7.20;99.90
7958;DHT22;4024;52.172;5.378;2024-01-25T07:02:44;7.30;99.90
7958;DHT22;4024;52.172;5.378;2024-01-25T07:05:10;7.20;99.90
7958;DHT22;4024;52.172;5.378;2024-01-25T07:07:35;7.20;99.90
7958;DHT22;4024;52.172;5.378;2024-01-25T07:10:04;7.20;99.90
7958;DHT22;4024;52.172;5.378;2024-01-25T07:12:30;7.20;99.90
7958;DHT22;4024;52.172;5.378;2024-01-25T07:14:56;7.20;99.90
7958;DHT22;4024;52.172;5.378;2024-01-25T07:17:22;7.20;99.90
7958;DHT22;4024;52.172;5.378;2024-01-25T07:19:47;7.20;99.90
7958;DHT22;4024;52.172;5.378;2024-01-25T07:22:13;7.20;99.90
7958;DHT22;4024;52.172;5.378;2024-01-25T07:24:40;7.20;99.90
7958;DHT22;4024;52.172;5.378;2024-01-25T07:27:06;7.20;99.90
7958;DHT22;4024;52.172;5.378;2024-01-25T07:29:31;7.20;99.90
7958;DHT22;4024;52.172;5.378;2024-01-25T07:31:57;7.20;99.90
7958;DHT22;4024;52.172;5.378;2024-01-25T07:34:23;7.20;99.90
7958;DHT22;4024;52.172;5.378;2024-01-25T07:36:48;7.20;99.90
7958;DHT22;4024;52.172;5.378;2024-01-25T07:39:14;7.30;99.90
7958;DHT22;4024;52.172;5.378;2024-01-25T07:41:39;7.30;99.90
7958;DHT22;4024;52.172;5.378;2024-01-25T07:44:05;7.30;99.90
7958;DHT22;4024;52.172;5.378;2024-01-25T07:46:31;7.30;99.90
7958;DHT22;4024;52.172;5.378;2024-01-25T07:48:56;7.30;99.90
7958;DHT22;4024;52.172;5.378;2024-01-25T07:51:22;7.30;99.90
7958;DHT22;4024;52.172;5.378;2024-01-25T07:53:48;7.40;99.90
7958;DHT22;4024;52.172;5.378;2024-01-25T07:56:13;7.40;99.90
7958;DHT22;4024;52.172;5.378;2024-01-25T07:58:41;7.40;99.90
7958;DHT22;4024;52.172;5.378;2024-01-25T08:01:06;7.40;99.90
7958;DHT22;4024;52.172;5.378;2024-01-25T08:03:32;7.40;99.90
7958;DHT22;4024;52.172;5.378;2024-01-25T08:05:59;7.40;99.90
7958;DHT22;4024;52.172;5.378;2024-01-25T08:08:25;7.40;99.90
7958;DHT22;4024;52.172;5.378;2024-01-25T08:10:51;7.40;99.90
7958;DHT22;4024;52.172;5.378;2024-01-25T08:13:16;7.50;99.90
7958;DHT22;4024;52.172;5.378;2024-01-25T08:15:42;7.50;99.90
7958;DHT22;4024;52.172;5.378;2024-01-25T08:18:07;7.50;99.90
7958;DHT22;4024;52.172;5.378;2024-01-25T08:20:33;7.50;99.90
7958;DHT22;4024;52.172;5.378;2024-01-25T08:23:00;7.50;99.90
7958;DHT22;4024;52.172;5.378;2024-01-25T08:25:26;7.50;99.90
7958;DHT22;4024;52.172;5.378;2024-01-25T08:27:52;7.50;99.90
7958;DHT22;4024;52.172;5.378;2024-01-25T08:30:17;7.50;99.90
7958;DHT22;4024;52.172;5.378;2024-01-25T08:32:43;7.50;99.90
7958;DHT22;4024;52.172;5.378;2024-01-25T08:35:08;7.50;99.90
7958;DHT22;4024;52.172;5.378;2024-01-25T08:37:34;7.50;99.90
7958;DHT22;4024;52.172;5.378;2024-01-25T08:40:01;7.50;99.90
7958;DHT22;4024;52.172;5.378;2024-01-25T08:42:27;7.60;99.90
7958;DHT22;4024;52.172;5.378;2024-01-25T08:44:53;7.60;99.90
7958;DHT22;4024;52.172;5.378;2024-01-25T08:47:18;7.60;99.90
7958;DHT22;4024;52.172;5.378;2024-01-25T08:49:44;7.60;99.90
7958;DHT22;4024;52.172;5.378;2024-01-25T08:52:10;7.60;99.90
7958;DHT22;4024;52.172;5.378;2024-01-25T08:54:35;7.60;99.90
7958;DHT22;4024;52.172;5.378;2024-01-25T08:57:04;7.70;99.90
7958;DHT22;4024;52.172;5.378;2024-01-25T08:59:30;7.70;99.90
7958;DHT22;4024;52.172;5.378;2024-01-25T09:01:58;7.70;99.90
7958;DHT22;4024;52.172;5.378;2024-01-25T09:04:24;7.70;99.90
7958;DHT22;4024;52.172;5.378;2024-01-25T09:06:49;7.80;99.90
7958;DHT22;4024;52.172;5.378;2024-01-25T09:09:15;7.80;99.90
7958;DHT22;4024;52.172;5.378;2024-01-25T09:11:40;7.90;99.90
7958;DHT22;4024;52.172;5.378;2024-01-25T09:14:06;7.90;99.90
7958;DHT22;4024;52.172;5.378;2024-01-25T09:16:31;7.90;99.90
7958;DHT22;4024;52.172;5.378;2024-01-25T09:18:57;8.00;99.90
7958;DHT22;4024;52.172;5.378;2024-01-25T09:31:28;8.20;99.90
7958;DHT22;4024;52.172;5.378;2024-01-25T09:33:54;8.20;99.90
7958;DHT22;4024;52.172;5.378;2024-01-25T09:36:19;8.30;99.90
7958;DHT22;4024;52.172;5.378;2024-01-25T09:38:45;8.40;99.90
7958;DHT22;4024;52.172;5.378;2024-01-25T09:41:10;8.40;99.90
7958;DHT22;4024;52.172;5.378;2024-01-25T09:43:36;8.50;99.90
7958;DHT22;4024;52.172;5.378;2024-01-25T09:46:02;8.50;99.90
7958;DHT22;4024;52.172;5.378;2024-01-25T09:48:30;8.60;99.90
7958;DHT22;4024;52.172;5.378;2024-01-25T09:50:59;8.60;99.90
7958;DHT22;4024;52.172;5.378;2024-01-25T09:53:24;8.70;99.90
7958;DHT22;4024;52.172;5.378;2024-01-25T09:56:10;8.80;99.90
7958;DHT22;4024;52.172;5.378;2024-01-25T09:58:41;8.80;99.90
7958;DHT22;4024;52.172;5.378;2024-01-25T10:01:12;8.80;99.90
7958;DHT22;4024;52.172;5.378;2024-01-25T10:03:41;8.90;99.90
7958;DHT22;4024;52.172;5.378;2024-01-25T10:06:07;9.00;99.90
7958;DHT22;4024;52.172;5.378;2024-01-25T10:08:34;9.00;99.90
7958;DHT22;4024;52.172;5.378;2024-01-25T10:11:00;9.00;99.90
7958;DHT22;4024;52.172;5.378;2024-01-25T10:13:26;9.10;99.90
7958;DHT22;4024;52.172;5.378;2024-01-25T10:15:56;9.10;99.90
7958;DHT22;4024;52.172;5.378;2024-01-25T10:18:22;9.10;99.90
7958;DHT22;4024;52.172;5.378;2024-01-25T10:20:48;9.10;99.90
7958;DHT22;4024;52.172;5.378;2024-01-25T10:23:14;9.20;99.90
7958;DHT22;4024;52.172;5.378;2024-01-25T10:25:40;9.20;99.90
7958;DHT22;4024;52.172;5.378;2024-01-25T10:28:06;9.20;99.90
7958;DHT22;4024;52.172;5.378;2024-01-25T10:30:33;9.30;99.90
7958;DHT22;4024;52.172;5.378;2024-01-25T10:33:00;9.30;99.90
7958;DHT22;4024;52.172;5.378;2024-01-25T10:35:26;9.30;99.90
7958;DHT22;4024;52.172;5.378;2024-01-25T10:37:53;9.40;99.90
7958;DHT22;4024;52.172;5.378;2024-01-25T10:40:19;9.40;99.90
7958;DHT22;4024;52.172;5.378;2024-01-25T10:42:45;9.50;99.90
7958;DHT22;4024;52.172;5.378;2024-01-25T10:45:11;9.50;99.90
7958;DHT22;4024;52.172;5.378;2024-01-25T10:47:37;9.50;99.90
7958;DHT22;4024;52.172;5.378;2024-01-25T10:50:04;9.60;99.90
7958;DHT22;4024;52.172;5.378;2024-01-25T10:52:30;9.70;99.90
7958;DHT22;4024;52.172;5.378;2024-01-25T10:54:57;9.60;99.90
7958;DHT22;4024;52.172;5.378;2024-01-25T10:57:23;9.80;99.90
7958;DHT22;4024;52.172;5.378;2024-01-25T10:59:48;9.80;99.90
7958;DHT22;4024;52.172;5.378;2024-01-25T11:02:17;9.80;99.90
7958;DHT22;4024;52.172;5.378;2024-01-25T11:04:55;9.90;99.90
7958;DHT22;4024;52.172;5.378;2024-01-25T11:07:21;9.90;99.90
7958;DHT22;4024;52.172;5.378;2024-01-25T11:09:51;10.00;99.90
7958;DHT22;4024;52.172;5.378;2024-01-25T11:12:18;10.00;99.90
7958;DHT22;4024;52.172;5.378;2024-01-25T11:14:43;10.00;99.90
7958;DHT22;4024;52.172;5.378;2024-01-25T11:17:35;10.00;99.90
7958;DHT22;4024;52.172;5.378;2024-01-25T11:20:02;9.90;99.90
7958;DHT22;4024;52.172;5.378;2024-01-25T11:22:35;10.00;99.90
7958;DHT22;4024;52.172;5.378;2024-01-25T11:25:12;10.00;99.90
7958;DHT22;4024;52.172;5.378;2024-01-25T11:27:38;10.10;99.90
7958;DHT22;4024;52.172;5.378;2024-01-25T11:30:08;10.10;99.90
7958;DHT22;4024;52.172;5.378;2024-01-25T11:32:34;10.10;99.90
7958;DHT22;4024;52.172;5.378;2024-01-25T11:34:59;10.20;99.90
7958;DHT22;4024;52.172;5.378;2024-01-25T11:37:26;10.20;99.90
7958;DHT22;4024;52.172;5.378;2024-01-25T11:39:51;10.20;99.90
7958;DHT22;4024;52.172;5.378;2024-01-25T11:42:18;10.20;99.90
7958;DHT22;4024;52.172;5.378;2024-01-25T11:44:43;10.20;99.90
7958;DHT22;4024;52.172;5.378;2024-01-25T11:47:09;10.20;99.90
7958;DHT22;4024;52.172;5.378;2024-01-25T11:49:35;10.20;99.90
7958;DHT22;4024;52.172;5.378;2024-01-25T11:52:01;10.20;99.90
7958;DHT22;4024;52.172;5.378;2024-01-25T11:54:27;10.30;99.90
7958;DHT22;4024;52.172;5.378;2024-01-25T11:56:53;10.30;99.90
7958;DHT22;4024;52.172;5.378;2024-01-25T11:59:19;10.30;99.90
7958;DHT22;4024;52.172;5.378;2024-01-25T12:01:45;10.40;99.90
7958;DHT22;4024;52.172;5.378;2024-01-25T12:04:10;10.40;99.90
7958;DHT22;4024;52.172;5.378;2024-01-25T12:06:36;10.40;99.90
7958;DHT22;4024;52.172;5.378;2024-01-25T12:09:11;10.40;99.90
7958;DHT22;4024;52.172;5.378;2024-01-25T12:11:39;10.40;99.90
7958;DHT22;4024;52.172;5.378;2024-01-25T12:14:07;10.50;99.90
7958;DHT22;4024;52.172;5.378;2024-01-25T12:16:33;10.50;99.90
7958;DHT22;4024;52.172;5.378;2024-01-25T12:18:59;10.50;99.90
7958;DHT22;4024;52.172;5.378;2024-01-25T12:21:24;10.50;99.90
7958;DHT22;4024;52.172;5.378;2024-01-25T12:23:50;10.50;99.90
7958;DHT22;4024;52.172;5.378;2024-01-25T12:26:16;10.50;99.90
7958;DHT22;4024;52.172;5.378;2024-01-25T12:28:42;10.50;99.90
7958;DHT22;4024;52.172;5.378;2024-01-25T12:31:08;10.50;99.90
7958;DHT22;4024;52.172;5.378;2024-01-25T12:33:34;10.50;99.90
7958;DHT22;4024;52.172;5.378;2024-01-25T12:36:02;10.50;99.90
7958;DHT22;4024;52.172;5.378;2024-01-25T12:38:28;10.50;99.90
7958;DHT22;4024;52.172;5.378;2024-01-25T12:40:54;10.50;99.90
7958;DHT22;4024;52.172;5.378;2024-01-25T12:43:20;10.60;99.90
7958;DHT22;4024;52.172;5.378;2024-01-25T12:45:49;10.60;99.90
7958;DHT22;4024;52.172;5.378;2024-01-25T12:48:15;10.50;99.90
7958;DHT22;4024;52.172;5.378;2024-01-25T12:50:41;10.60;99.90
7958;DHT22;4024;52.172;5.378;2024-01-25T12:53:07;10.60;99.90
7958;DHT22;4024;52.172;5.378;2024-01-25T12:55:35;10.70;99.90
7958;DHT22;4024;52.172;5.378;2024-01-25T12:58:01;10.70;99.90
7958;DHT22;4024;52.172;5.378;2024-01-25T13:00:26;10.70;99.90
7958;DHT22;4024;52.172;5.378;2024-01-25T13:02:52;10.80;99.90
7958;DHT22;4024;52.172;5.378;2024-01-25T13:05:20;10.80;99.90
7958;DHT22;4024;52.172;5.378;2024-01-25T13:07:45;10.80;99.90
7958;DHT22;4024;52.172;5.378;2024-01-25T13:10:11;10.80;99.90
7958;DHT22;4024;52.172;5.378;2024-01-25T13:12:37;10.90;99.90
7958;DHT22;4024;52.172;5.378;2024-01-25T13:15:04;10.90;99.90
7958;DHT22;4024;52.172;5.378;2024-01-25T13:17:30;10.90;99.90
7958;DHT22;4024;52.172;5.378;2024-01-25T13:19:57;11.00;99.90
7958;DHT22;4024;52.172;5.378;2024-01-25T13:22:23;11.00;99.90
7958;DHT22;4024;52.172;5.378;2024-01-25T13:24:50;11.00;99.90
7958;DHT22;4024;52.172;5.378;2024-01-25T13:27:16;11.00;99.90
7958;DHT22;4024;52.172;5.378;2024-01-25T13:29:41;11.00;99.90
7958;DHT22;4024;52.172;5.378;2024-01-25T13:32:08;11.00;99.90
7958;DHT22;4024;52.172;5.378;2024-01-25T13:34:34;11.10;99.90
7958;DHT22;4024;52.172;5.378;2024-01-25T13:36:59;11.10;99.90
7958;DHT22;4024;52.172;5.378;2024-01-25T13:39:25;11.10;99.90
7958;DHT22;4024;52.172;5.378;2024-01-25T13:41:51;11.20;99.90
7958;DHT22;4024;52.172;5.378;2024-01-25T13:44:17;11.20;99.90
7958;DHT22;4024;52.172;5.378;2024-01-25T13:46:43;11.20;99.90
7958;DHT22;4024;52.172;5.378;2024-01-25T13:49:08;11.20;99.90
7958;DHT22;4024;52.172;5.378;2024-01-25T13:51:34;11.20;99.90
7958;DHT22;4024;52.172;5.378;2024-01-25T13:54:00;11.20;99.90
7958;DHT22;4024;52.172;5.378;2024-01-25T13:56:26;11.20;99.90
7958;DHT22;4024;52.172;5.378;2024-01-25T13:58:52;11.20;99.90
7958;DHT22;4024;52.172;5.378;2024-01-25T14:01:18;11.20;99.90
7958;DHT22;4024;52.172;5.378;2024-01-25T14:03:43;11.20;99.90
7958;DHT22;4024;52.172;5.378;2024-01-25T14:06:09;11.20;99.90
7958;DHT22;4024;52.172;5.378;2024-01-25T14:08:37;11.20;99.90
7958;DHT22;4024;52.172;5.378;2024-01-25T14:11:03;11.20;99.90
7958;DHT22;4024;52.172;5.378;2024-01-25T14:13:29;11.20;99.90
7958;DHT22;4024;52.172;5.378;2024-01-25T14:15:55;11.20;99.90
7958;DHT22;4024;52.172;5.378;2024-01-25T14:18:21;11.20;99.90
7958;DHT22;4024;52.172;5.378;2024-01-25T14:20:46;11.20;99.90
7958;DHT22;4024;52.172;5.378;2024-01-25T14:23:12;11.20;99.90
7958;DHT22;4024;52.172;5.378;2024-01-25T14:25:38;11.20;99.90
7958;DHT22;4024;52.172;5.378;2024-01-25T14:28:03;11.10;99.90
7958;DHT22;4024;52.172;5.378;2024-01-25T14:30:29;11.10;99.90
7958;DHT22;4024;52.172;5.378;2024-01-25T14:32:55;11.10;99.90
7958;DHT22;4024;52.172;5.378;2024-01-25T14:35:22;11.10;99.90
7958;DHT22;4024;52.172;5.378;2024-01-25T14:37:56;11.10;99.90
7958;DHT22;4024;52.172;5.378;2024-01-25T14:40:22;11.10;99.90
7958;DHT22;4024;52.172;5.378;2024-01-25T14:42:48;11.10;99.90
7958;DHT22;4024;52.172;5.378;2024-01-25T14:45:13;11.20;99.90
7958;DHT22;4024;52.172;5.378;2024-01-25T14:47:39;11.10;99.90
7958;DHT22;4024;52.172;5.378;2024-01-25T14:50:05;11.10;99.90
7958;DHT22;4024;52.172;5.378;2024-01-25T14:52:31;11.10;99.90
7958;DHT22;4024;52.172;5.378;2024-01-25T14:55:01;11.10;99.90
7958;DHT22;4024;52.172;5.378;2024-01-25T14:57:26;11.10;99.90
7958;DHT22;4024;52.172;5.378;2024-01-25T14:59:52;11.00;99.90
7958;DHT22;4024;52.172;5.378;2024-01-25T15:02:18;11.10;99.90
7958;DHT22;4024;52.172;5.378;2024-01-25T15:04:44;11.00;99.90
7958;DHT22;4024;52.172;5.378;2024-01-25T15:07:09;11.00;99.90
7958;DHT22;4024;52.172;5.378;2024-01-25T15:09:35;11.00;99.90
7958;DHT22;4024;52.172;5.378;2024-01-25T15:12:01;11.00;99.90
7958;DHT22;4024;52.172;5.378;2024-01-25T15:14:26;11.00;99.90
7958;DHT22;4024;52.172;5.378;2024-01-25T15:16:52;11.00;99.90
7958;DHT22;4024;52.172;5.378;2024-01-25T15:19:17;10.90;99.90
7958;DHT22;4024;52.172;5.378;2024-01-25T15:21:43;10.90;99.90
7958;DHT22;4024;52.172;5.378;2024-01-25T15:24:09;10.80;99.90
7958;DHT22;4024;52.172;5.378;2024-01-25T15:26:39;10.80;99.90
7958;DHT22;4024;52.172;5.378;2024-01-25T15:29:04;10.80;99.90
7958;DHT22;4024;52.172;5.378;2024-01-25T15:31:30;10.80;99.90
7958;DHT22;4024;52.172;5.378;2024-01-25T15:33:55;10.80;99.90
7958;DHT22;4024;52.172;5.378;2024-01-25T15:36:22;10.70;99.90
7958;DHT22;4024;52.172;5.378;2024-01-25T15:38:48;10.70;99.90
7958;DHT22;4024;52.172;5.378;2024-01-25T15:41:15;10.70;99.90
7958;DHT22;4024;52.172;5.378;2024-01-25T15:43:42;10.70;99.90
7958;DHT22;4024;52.172;5.378;2024-01-25T15:46:07;10.70;99.90
7958;DHT22;4024;52.172;5.378;2024-01-25T15:48:33;10.60;99.90
7958;DHT22;4024;52.172;5.378;2024-01-25T15:50:58;10.60;99.90
7958;DHT22;4024;52.172;5.378;2024-01-25T15:53:24;10.60;99.90
7958;DHT22;4024;52.172;5.378;2024-01-25T15:55:50;10.60;99.90
7958;DHT22;4024;52.172;5.378;2024-01-25T15:58:15;10.60;99.90
7958;DHT22;4024;52.172;5.378;2024-01-25T16:00:41;10.60;99.90
7958;DHT22;4024;52.172;5.378;2024-01-25T16:03:06;10.60;99.90
7958;DHT22;4024;52.172;5.378;2024-01-25T16:05:32;10.60;99.90
7958;DHT22;4024;52.172;5.378;2024-01-25T16:07:58;10.60;99.90
7958;DHT22;4024;52.172;5.378;2024-01-25T16:10:23;10.50;99.90
7958;DHT22;4024;52.172;5.378;2024-01-25T16:12:50;10.50;99.90
7958;DHT22;4024;52.172;5.378;2024-01-25T16:15:16;10.50;99.90